createdAt,value
2023-01-09T00:02:25.064Z,23.74
2023-01-09T00:09:56.853Z,23.74
2023-01-09T00:17:28.625Z,23.73
2023-01-09T00:25:00.359Z,23.71
2023-01-09T00:32:32.298Z,23.70
2023-01-09T00:40:04.213Z,23.70
2023-01-09T00:47:42.802Z,23.69
2023-01-09T00:55:14.654Z,23.69
2023-01-09T01:02:46.533Z,23.68
2023-01-09T01:10:22.187Z,23.69
2023-01-09T01:17:54.033Z,23.71
2023-01-09T01:25:25.829Z,23.70
2023-01-09T01:32:57.646Z,23.69
2023-01-09T01:40:29.921Z,23.69
2023-01-09T01:48:37.175Z,23.69
2023-01-09T01:56:26.466Z,23.68
2023-01-09T02:03:58.462Z,23.68
2023-01-09T02:11:30.236Z,23.68
2023-01-09T02:19:42.321Z,23.68
2023-01-09T02:27:24.117Z,23.66
2023-01-09T02:35:02.430Z,23.64
2023-01-09T02:42:34.195Z,23.67
2023-01-09T02:50:09.799Z,23.65
2023-01-09T02:58:09.326Z,23.66
2023-01-09T03:05:51.426Z,23.64
2023-01-09T03:13:24.900Z,23.61
2023-01-09T03:20:56.709Z,23.62
2023-01-09T03:28:28.983Z,23.62
2023-01-09T03:36:00.806Z,23.63
2023-01-09T03:43:32.609Z,23.61
2023-01-09T03:51:04.423Z,23.61
2023-01-09T03:58:36.239Z,23.61
2023-01-09T04:06:08.045Z,23.60
2023-01-09T04:13:39.859Z,23.61
2023-01-09T04:21:11.679Z,23.58
2023-01-09T04:28:43.391Z,23.60
2023-01-09T04:36:15.159Z,23.58
2023-01-09T04:43:46.910Z,23.58
2023-01-09T04:51:18.663Z,23.58
2023-01-09T04:58:50.421Z,23.58
2023-01-09T05:06:22.155Z,23.57
2023-01-09T05:13:53.964Z,23.58
2023-01-09T05:21:25.760Z,23.55
2023-01-09T05:28:57.570Z,23.56
2023-01-09T05:36:29.718Z,23.57
2023-01-09T05:44:07.577Z,23.56
2023-01-09T05:51:39.377Z,23.55
2023-01-09T05:59:11.136Z,23.57
2023-01-09T06:06:42.963Z,23.57
2023-01-09T06:14:14.738Z,23.54
2023-01-09T06:21:46.525Z,23.52
2023-01-09T06:29:18.408Z,23.52
2023-01-09T06:36:50.197Z,23.51
2023-01-09T06:44:21.945Z,23.50
2023-01-09T06:51:53.698Z,23.50
2023-01-09T06:59:25.616Z,23.52
2023-01-09T07:06:57.330Z,23.50
2023-01-09T07:14:29.087Z,23.48
2023-01-09T07:22:00.834Z,23.49
2023-01-09T07:29:32.596Z,23.49
2023-01-09T07:37:04.379Z,23.49
2023-01-09T07:44:36.237Z,23.48
2023-01-09T07:52:08.196Z,23.47
2023-01-09T07:59:40.077Z,23.50
2023-01-09T08:07:11.890Z,23.52
2023-01-09T08:14:43.662Z,23.53
2023-01-09T08:22:15.449Z,23.53
2023-01-09T08:29:47.197Z,23.53
2023-01-09T08:37:18.937Z,23.54
2023-01-09T08:45:09.207Z,23.55
2023-01-09T08:52:40.949Z,23.53
2023-01-09T09:00:13.879Z,23.53
2023-01-09T09:07:56.374Z,23.50
2023-01-09T09:15:28.682Z,23.51
2023-01-09T09:23:00.511Z,23.51
2023-01-09T09:30:32.347Z,23.50
2023-01-09T09:38:05.552Z,23.48
2023-01-09T09:45:55.339Z,23.48
2023-01-09T09:53:51.974Z,23.48
2023-01-09T10:01:45.629Z,23.48
2023-01-09T10:10:00.586Z,23.48
2023-01-09T10:18:12.253Z,23.49
2023-01-09T10:26:01.458Z,23.48
2023-01-09T10:33:48.237Z,23.49
2023-01-09T10:41:24.055Z,23.49
2023-01-09T10:48:59.652Z,23.49
2023-01-09T10:56:34.379Z,23.50
2023-01-09T11:04:20.649Z,23.49
2023-01-09T11:11:52.886Z,23.55
2023-01-09T11:19:25.638Z,23.63
2023-01-09T11:27:12.625Z,23.69
2023-01-09T11:34:45.157Z,23.71
2023-01-09T11:42:47.198Z,23.75
2023-01-09T11:50:24.923Z,23.79
2023-01-09T11:57:56.831Z,23.80
2023-01-09T12:05:53.312Z,23.83
2023-01-09T12:13:53.287Z,23.83
2023-01-09T12:21:46.042Z,23.85
2023-01-09T12:29:26.996Z,23.90
2023-01-09T12:37:01.793Z,23.90
2023-01-09T12:44:57.756Z,23.92
2023-01-09T12:52:34.784Z,23.93
2023-01-09T13:00:18.885Z,23.94
2023-01-09T13:08:02.163Z,23.97
2023-01-09T13:15:39.708Z,23.93
2023-01-09T13:23:56.352Z,23.96
2023-01-09T13:31:41.707Z,23.98
2023-01-09T13:39:39.814Z,24.00
2023-01-09T13:47:35.677Z,24.00
2023-01-09T13:55:16.441Z,24.01
2023-01-09T14:02:49.799Z,24.01
2023-01-09T14:10:42.024Z,24.00
2023-01-09T14:18:23.935Z,23.99
2023-01-09T14:25:55.803Z,23.98
2023-01-09T14:33:29.916Z,24.00
2023-01-09T14:41:46.249Z,24.01
2023-01-09T14:49:32.085Z,24.00
2023-01-09T14:57:03.992Z,23.97
2023-01-09T15:04:36.349Z,23.96
2023-01-09T15:12:09.492Z,23.98
2023-01-09T15:19:44.303Z,23.98
2023-01-09T15:27:16.466Z,23.99
2023-01-09T15:34:48.522Z,23.99
2023-01-09T15:42:44.304Z,24.00
2023-01-09T15:50:26.773Z,24.02
2023-01-09T15:57:58.730Z,24.03
2023-01-09T16:05:32.943Z,24.02
2023-01-09T16:13:04.756Z,24.02
2023-01-09T16:20:36.780Z,24.02
2023-01-09T16:28:27.125Z,24.01
2023-01-09T16:35:59.078Z,24.03
2023-01-09T16:43:30.812Z,24.02
2023-01-09T16:51:02.616Z,24.02
2023-01-09T16:58:35.343Z,24.02
2023-01-09T17:06:07.511Z,24.03
2023-01-09T17:13:39.262Z,24.03
2023-01-09T17:21:23.170Z,24.03
2023-01-09T17:28:54.935Z,24.04
2023-01-09T17:36:32.166Z,24.05
2023-01-09T17:44:04.354Z,24.06
2023-01-09T17:51:36.111Z,24.06
2023-01-09T17:59:10.012Z,24.06
2023-01-09T18:06:41.868Z,24.06
2023-01-09T18:14:14.060Z,24.05
2023-01-09T18:21:46.753Z,24.06
2023-01-09T18:29:19.262Z,24.05
2023-01-09T18:36:51.063Z,24.05
2023-01-09T18:44:23.287Z,24.03
2023-01-09T18:51:55.337Z,24.04
2023-01-09T18:59:27.055Z,24.04
2023-01-09T19:06:59.864Z,23.97
2023-01-09T19:14:31.587Z,23.88
2023-01-09T19:22:03.503Z,23.77
2023-01-09T19:29:36.870Z,23.81
2023-01-09T19:37:09.568Z,23.85
2023-01-09T19:44:41.424Z,23.86
2023-01-09T19:52:14.642Z,23.89
2023-01-09T19:59:46.400Z,23.90
2023-01-09T20:07:18.161Z,23.91
2023-01-09T20:14:50.002Z,23.92
2023-01-09T20:22:23.965Z,23.95
2023-01-09T20:29:55.800Z,23.97
2023-01-09T20:37:27.542Z,23.98
2023-01-09T20:44:59.614Z,23.99
2023-01-09T20:52:31.354Z,24.00
2023-01-09T21:00:04.440Z,24.01
2023-01-09T21:07:36.197Z,24.03
2023-01-09T21:15:09.722Z,24.01
2023-01-09T21:22:41.574Z,24.05
2023-01-09T21:30:13.469Z,24.03
2023-01-09T21:37:45.237Z,24.05
2023-01-09T21:45:35.632Z,24.03
2023-01-09T21:53:07.984Z,24.05
2023-01-09T22:00:41.022Z,24.06
2023-01-09T22:08:12.806Z,24.06
2023-01-09T22:15:46.050Z,24.06
2023-01-09T22:23:17.766Z,24.07
2023-01-09T22:30:49.529Z,24.06
2023-01-09T22:38:21.296Z,24.09
2023-01-09T22:45:53.032Z,24.10
2023-01-09T22:53:24.808Z,24.11
2023-01-09T23:00:56.612Z,24.10
2023-01-09T23:08:29.120Z,24.11
2023-01-09T23:16:01.757Z,24.10
2023-01-09T23:23:33.532Z,24.11
2023-01-09T23:31:05.326Z,24.09
2023-01-09T23:38:37.120Z,24.09
2023-01-09T23:46:08.929Z,24.09
2023-01-09T23:53:40.701Z,24.10
